sensor_id;sensor_type;location;lat;lon;timestamp;P1;durP1;ratioP1;P2;durP2;ratioP2
4986;SDS011;12674;51.500;7.552;2023-04-24T00:01:13;0.60;;;0.60;;
4986;SDS011;12674;51.500;7.552;2023-04-24T00:03:16;1.00;;;0.70;;
4986;SDS011;12674;51.500;7.552;2023-04-24T00:05:22;0.90;;;0.60;;
4986;SDS011;12674;51.500;7.552;2023-04-24T00:07:26;1.13;;;0.90;;
4986;SDS011;12674;51.500;7.552;2023-04-24T00:09:30;0.90;;;0.63;;
4986;SDS011;12674;51.500;7.552;2023-04-24T00:11:33;1.23;;;0.63;;
4986;SDS011;12674;51.500;7.552;2023-04-24T00:13:36;1.73;;;0.80;;
4986;SDS011;12674;51.500;7.552;2023-04-24T00:15:39;1.10;;;0.90;;
4986;SDS011;12674;51.500;7.552;2023-04-24T00:17:42;6.60;;;2.23;;
4986;SDS011;12674;51.500;7.552;2023-04-24T00:19:45;1.23;;;1.00;;
4986;SDS011;12674;51.500;7.552;2023-04-24T00:21:48;1.50;;;1.30;;
4986;SDS011;12674;51.500;7.552;2023-04-24T00:23:52;1.17;;;0.80;;
4986;SDS011;12674;51.500;7.552;2023-04-24T00:25:56;2.80;;;1.23;;
4986;SDS011;12674;51.500;7.552;2023-04-24T00:27:59;2.07;;;0.87;;
4986;SDS011;12674;51.500;7.552;2023-04-24T00:30:02;1.53;;;0.70;;
4986;SDS011;12674;51.500;7.552;2023-04-24T00:32:06;1.60;;;0.60;;
4986;SDS011;12674;51.500;7.552;2023-04-24T00:34:09;0.93;;;0.60;;
4986;SDS011;12674;51.500;7.552;2023-04-24T00:36:13;3.17;;;0.70;;
4986;SDS011;12674;51.500;7.552;2023-04-24T00:38:16;0.73;;;0.70;;
4986;SDS011;12674;51.500;7.552;2023-04-24T00:40:19;0.60;;;0.60;;
4986;SDS011;12674;51.500;7.552;2023-04-24T00:42:24;0.60;;;0.60;;
4986;SDS011;12674;51.500;7.552;2023-04-24T00:44:27;3.33;;;1.00;;
4986;SDS011;12674;51.500;7.552;2023-04-24T00:46:30;1.43;;;0.80;;
4986;SDS011;12674;51.500;7.552;2023-04-24T00:48:34;1.20;;;0.70;;
4986;SDS011;12674;51.500;7.552;2023-04-24T00:50:37;0.60;;;0.60;;
4986;SDS011;12674;51.500;7.552;2023-04-24T00:52:40;1.47;;;1.00;;
4986;SDS011;12674;51.500;7.552;2023-04-24T00:54:43;2.07;;;0.97;;
4986;SDS011;12674;51.500;7.552;2023-04-24T00:56:46;0.90;;;0.73;;
4986;SDS011;12674;51.500;7.552;2023-04-24T00:58:51;5.43;;;1.13;;
4986;SDS011;12674;51.500;7.552;2023-04-24T01:00:54;3.63;;;0.90;;
4986;SDS011;12674;51.500;7.552;2023-04-24T01:02:59;1.83;;;1.03;;
4986;SDS011;12674;51.500;7.552;2023-04-24T01:05:02;3.33;;;0.80;;
4986;SDS011;12674;51.500;7.552;2023-04-24T01:07:05;0.80;;;0.73;;
4986;SDS011;12674;51.500;7.552;2023-04-24T01:09:12;1.57;;;0.77;;
4986;SDS011;12674;51.500;7.552;2023-04-24T01:11:15;1.67;;;0.70;;
4986;SDS011;12674;51.500;7.552;2023-04-24T01:13:19;1.10;;;0.70;;
4986;SDS011;12674;51.500;7.552;2023-04-24T01:15:24;0.90;;;0.90;;
4986;SDS011;12674;51.500;7.552;2023-04-24T01:17:26;2.87;;;1.13;;
4986;SDS011;12674;51.500;7.552;2023-04-24T01:19:29;0.80;;;0.70;;
4986;SDS011;12674;51.500;7.552;2023-04-24T01:21:33;1.60;;;0.80;;
4986;SDS011;12674;51.500;7.552;2023-04-24T01:23:39;2.50;;;1.00;;
4986;SDS011;12674;51.500;7.552;2023-04-24T01:25:42;3.40;;;0.90;;
4986;SDS011;12674;51.500;7.552;2023-04-24T01:27:45;1.63;;;0.80;;
4986;SDS011;12674;51.500;7.552;2023-04-24T01:29:48;2.43;;;1.30;;
4986;SDS011;12674;51.500;7.552;2023-04-24T01:31:53;3.33;;;1.00;;
4986;SDS011;12674;51.500;7.552;2023-04-24T01:33:56;1.37;;;1.10;;
4986;SDS011;12674;51.500;7.552;2023-04-24T01:35:59;2.67;;;1.03;;
4986;SDS011;12674;51.500;7.552;2023-04-24T01:38:02;1.50;;;0.90;;
4986;SDS011;12674;51.500;7.552;2023-04-24T01:40:07;3.33;;;1.03;;
4986;SDS011;12674;51.500;7.552;2023-04-24T01:42:10;1.10;;;1.00;;
4986;SDS011;12674;51.500;7.552;2023-04-24T01:44:14;1.00;;;0.90;;
4986;SDS011;12674;51.500;7.552;2023-04-24T01:46:18;3.00;;;1.30;;
4986;SDS011;12674;51.500;7.552;2023-04-24T01:48:21;3.00;;;0.87;;
4986;SDS011;12674;51.500;7.552;2023-04-24T01:50:26;1.20;;;0.87;;
4986;SDS011;12674;51.500;7.552;2023-04-24T01:52:28;2.27;;;1.10;;
4986;SDS011;12674;51.500;7.552;2023-04-24T01:54:32;1.10;;;1.00;;
4986;SDS011;12674;51.500;7.552;2023-04-24T01:56:37;1.03;;;0.87;;
4986;SDS011;12674;51.500;7.552;2023-04-24T01:58:44;2.17;;;1.20;;
4986;SDS011;12674;51.500;7.552;2023-04-24T02:00:47;1.27;;;1.17;;
4986;SDS011;12674;51.500;7.552;2023-04-24T02:02:50;2.67;;;1.27;;
4986;SDS011;12674;51.500;7.552;2023-04-24T02:04:53;1.47;;;1.03;;
4986;SDS011;12674;51.500;7.552;2023-04-24T02:06:56;2.27;;;1.23;;
4986;SDS011;12674;51.500;7.552;2023-04-24T02:08:59;1.50;;;1.13;;
4986;SDS011;12674;51.500;7.552;2023-04-24T02:11:02;1.60;;;1.50;;
4986;SDS011;12674;51.500;7.552;2023-04-24T02:13:07;1.93;;;1.10;;
4986;SDS011;12674;51.500;7.552;2023-04-24T02:15:10;1.50;;;1.33;;
4986;SDS011;12674;51.500;7.552;2023-04-24T02:17:13;1.73;;;1.57;;
4986;SDS011;12674;51.500;7.552;2023-04-24T02:19:17;6.90;;;1.33;;
4986;SDS011;12674;51.500;7.552;2023-04-24T02:21:20;0.93;;;0.93;;
4986;SDS011;12674;51.500;7.552;2023-04-24T02:23:23;1.50;;;1.40;;
4986;SDS011;12674;51.500;7.552;2023-04-24T02:25:26;3.97;;;1.70;;
4986;SDS011;12674;51.500;7.552;2023-04-24T02:27:29;1.60;;;1.50;;
4986;SDS011;12674;51.500;7.552;2023-04-24T02:29:33;2.00;;;1.40;;
4986;SDS011;12674;51.500;7.552;2023-04-24T02:31:36;1.30;;;1.20;;
4986;SDS011;12674;51.500;7.552;2023-04-24T02:33:40;4.83;;;1.60;;
4986;SDS011;12674;51.500;7.552;2023-04-24T02:35:43;3.20;;;1.10;;
4986;SDS011;12674;51.500;7.552;2023-04-24T02:37:46;2.17;;;1.40;;
4986;SDS011;12674;51.500;7.552;2023-04-24T02:39:49;1.40;;;1.30;;
4986;SDS011;12674;51.500;7.552;2023-04-24T02:41:52;2.27;;;1.50;;
4986;SDS011;12674;51.500;7.552;2023-04-24T02:43:55;2.80;;;1.80;;
4986;SDS011;12674;51.500;7.552;2023-04-24T02:45:59;3.43;;;1.37;;
4986;SDS011;12674;51.500;7.552;2023-04-24T02:48:02;2.70;;;2.03;;
4986;SDS011;12674;51.500;7.552;2023-04-24T02:50:06;1.60;;;1.30;;
4986;SDS011;12674;51.500;7.552;2023-04-24T02:52:10;2.60;;;1.50;;
4986;SDS011;12674;51.500;7.552;2023-04-24T02:54:13;5.70;;;1.30;;
4986;SDS011;12674;51.500;7.552;2023-04-24T02:56:16;2.03;;;1.77;;
4986;SDS011;12674;51.500;7.552;2023-04-24T02:58:19;1.57;;;1.33;;
4986;SDS011;12674;51.500;7.552;2023-04-24T03:00:22;3.53;;;1.57;;
4986;SDS011;12674;51.500;7.552;2023-04-24T03:02:26;9.17;;;1.97;;
4986;SDS011;12674;51.500;7.552;2023-04-24T03:04:29;6.50;;;1.77;;
4986;SDS011;12674;51.500;7.552;2023-04-24T03:06:33;2.50;;;2.30;;
4986;SDS011;12674;51.500;7.552;2023-04-24T03:08:36;3.37;;;2.63;;
4986;SDS011;12674;51.500;7.552;2023-04-24T03:10:39;7.03;;;2.53;;
4986;SDS011;12674;51.500;7.552;2023-04-24T03:12:42;3.03;;;2.57;;
4986;SDS011;12674;51.500;7.552;2023-04-24T03:14:45;8.43;;;2.50;;
4986;SDS011;12674;51.500;7.552;2023-04-24T03:16:48;4.37;;;3.80;;
4986;SDS011;12674;51.500;7.552;2023-04-24T03:18:52;5.70;;;4.53;;
4986;SDS011;12674;51.500;7.552;2023-04-24T03:20:57;7.90;;;5.37;;
4986;SDS011;12674;51.500;7.552;2023-04-24T03:23:01;7.23;;;5.33;;
4986;SDS011;12674;51.500;7.552;2023-04-24T03:25:04;5.10;;;4.60;;
4986;SDS011;12674;51.500;7.552;2023-04-24T03:27:09;7.87;;;5.50;;
4986;SDS011;12674;51.500;7.552;2023-04-24T03:29:29;8.47;;;5.47;;
4986;SDS011;12674;51.500;7.552;2023-04-24T03:31:33;14.23;;;5.83;;
4986;SDS011;12674;51.500;7.552;2023-04-24T03:33:36;10.50;;;5.60;;
4986;SDS011;12674;51.500;7.552;2023-04-24T03:35:42;9.83;;;6.00;;
4986;SDS011;12674;51.500;7.552;2023-04-24T03:37:46;9.80;;;6.57;;
4986;SDS011;12674;51.500;7.552;2023-04-24T03:40:09;8.37;;;5.70;;
4986;SDS011;12674;51.500;7.552;2023-04-24T03:42:12;8.20;;;6.37;;
4986;SDS011;12674;51.500;7.552;2023-04-24T03:44:29;8.57;;;5.80;;
4986;SDS011;12674;51.500;7.552;2023-04-24T03:46:32;8.30;;;6.30;;
4986;SDS011;12674;51.500;7.552;2023-04-24T03:48:36;8.30;;;6.87;;
4986;SDS011;12674;51.500;7.552;2023-04-24T03:50:39;14.73;;;7.00;;
4986;SDS011;12674;51.500;7.552;2023-04-24T03:52:46;8.47;;;7.13;;
4986;SDS011;12674;51.500;7.552;2023-04-24T03:55:00;9.27;;;6.73;;
4986;SDS011;12674;51.500;7.552;2023-04-24T03:57:05;7.33;;;5.50;;
4986;SDS011;12674;51.500;7.552;2023-04-24T03:59:10;8.30;;;6.30;;
4986;SDS011;12674;51.500;7.552;2023-04-24T04:01:14;9.27;;;6.10;;
4986;SDS011;12674;51.500;7.552;2023-04-24T04:03:23;15.93;;;7.97;;
4986;SDS011;12674;51.500;7.552;2023-04-24T04:05:27;11.60;;;7.10;;
4986;SDS011;12674;51.500;7.552;2023-04-24T04:07:31;13.03;;;7.43;;
4986;SDS011;12674;51.500;7.552;2023-04-24T04:09:35;9.77;;;7.17;;
4986;SDS011;12674;51.500;7.552;2023-04-24T04:11:38;16.10;;;7.33;;
4986;SDS011;12674;51.500;7.552;2023-04-24T04:13:41;9.53;;;6.70;;
4986;SDS011;12674;51.500;7.552;2023-04-24T04:15:44;14.07;;;7.20;;
4986;SDS011;12674;51.500;7.552;2023-04-24T04:17:47;10.57;;;6.97;;
4986;SDS011;12674;51.500;7.552;2023-04-24T04:19:51;9.20;;;6.43;;
4986;SDS011;12674;51.500;7.552;2023-04-24T04:21:54;10.33;;;7.47;;
4986;SDS011;12674;51.500;7.552;2023-04-24T04:24:10;10.53;;;7.30;;
4986;SDS011;12674;51.500;7.552;2023-04-24T04:26:19;11.30;;;7.07;;
4986;SDS011;12674;51.500;7.552;2023-04-24T04:28:32;13.87;;;7.73;;
4986;SDS011;12674;51.500;7.552;2023-04-24T04:30:36;11.73;;;7.30;;
4986;SDS011;12674;51.500;7.552;2023-04-24T04:32:39;12.33;;;6.73;;
4986;SDS011;12674;51.500;7.552;2023-04-24T04:34:43;8.63;;;7.67;;
4986;SDS011;12674;51.500;7.552;2023-04-24T04:36:47;8.07;;;6.83;;
4986;SDS011;12674;51.500;7.552;2023-04-24T04:39:15;12.47;;;7.63;;
4986;SDS011;12674;51.500;7.552;2023-04-24T04:41:29;11.30;;;7.07;;
4986;SDS011;12674;51.500;7.552;2023-04-24T04:43:32;9.17;;;7.57;;
4986;SDS011;12674;51.500;7.552;2023-04-24T04:45:36;9.60;;;7.30;;
4986;SDS011;12674;51.500;7.552;2023-04-24T04:48:11;8.20;;;7.20;;
4986;SDS011;12674;51.500;7.552;2023-04-24T04:50:15;9.73;;;7.50;;
4986;SDS011;12674;51.500;7.552;2023-04-24T04:52:22;12.53;;;7.67;;
4986;SDS011;12674;51.500;7.552;2023-04-24T04:54:37;11.57;;;7.30;;
4986;SDS011;12674;51.500;7.552;2023-04-24T04:56:41;11.57;;;7.50;;
4986;SDS011;12674;51.500;7.552;2023-04-24T04:58:44;9.67;;;7.83;;
4986;SDS011;12674;51.500;7.552;2023-04-24T05:00:49;13.43;;;7.87;;
4986;SDS011;12674;51.500;7.552;2023-04-24T05:03:04;10.67;;;8.23;;
4986;SDS011;12674;51.500;7.552;2023-04-24T05:05:25;10.03;;;8.10;;
4986;SDS011;12674;51.500;7.552;2023-04-24T05:07:28;9.53;;;8.20;;
4986;SDS011;12674;51.500;7.552;2023-04-24T05:09:31;14.93;;;8.40;;
4986;SDS011;12674;51.500;7.552;2023-04-24T05:11:37;13.43;;;8.63;;
4986;SDS011;12674;51.500;7.552;2023-04-24T05:13:41;11.83;;;8.70;;
4986;SDS011;12674;51.500;7.552;2023-04-24T05:16:07;18.63;;;8.20;;
4986;SDS011;12674;51.500;7.552;2023-04-24T05:18:10;12.83;;;8.50;;
4986;SDS011;12674;51.500;7.552;2023-04-24T05:20:13;10.83;;;8.53;;
4986;SDS011;12674;51.500;7.552;2023-04-24T05:22:17;13.40;;;8.23;;
4986;SDS011;12674;51.500;7.552;2023-04-24T05:24:25;12.03;;;9.10;;
4986;SDS011;12674;51.500;7.552;2023-04-24T05:26:51;17.50;;;8.97;;
4986;SDS011;12674;51.500;7.552;2023-04-24T05:29:00;12.43;;;9.37;;
4986;SDS011;12674;51.500;7.552;2023-04-24T05:31:03;12.10;;;8.40;;
4986;SDS011;12674;51.500;7.552;2023-04-24T05:33:06;13.70;;;8.17;;
4986;SDS011;12674;51.500;7.552;2023-04-24T05:35:10;11.83;;;7.70;;
4986;SDS011;12674;51.500;7.552;2023-04-24T05:37:13;12.17;;;7.33;;
4986;SDS011;12674;51.500;7.552;2023-04-24T05:39:16;13.10;;;6.60;;
4986;SDS011;12674;51.500;7.552;2023-04-24T05:41:19;7.70;;;5.90;;
4986;SDS011;12674;51.500;7.552;2023-04-24T05:43:22;9.13;;;5.90;;
4986;SDS011;12674;51.500;7.552;2023-04-24T05:45:27;7.60;;;5.83;;
4986;SDS011;12674;51.500;7.552;2023-04-24T05:47:30;14.73;;;6.50;;
4986;SDS011;12674;51.500;7.552;2023-04-24T05:49:33;15.50;;;6.00;;
4986;SDS011;12674;51.500;7.552;2023-04-24T05:51:36;6.50;;;5.70;;
4986;SDS011;12674;51.500;7.552;2023-04-24T05:53:40;12.43;;;6.60;;
4986;SDS011;12674;51.500;7.552;2023-04-24T05:55:44;10.73;;;5.70;;
4986;SDS011;12674;51.500;7.552;2023-04-24T05:57:47;8.67;;;5.50;;
4986;SDS011;12674;51.500;7.552;2023-04-24T05:59:50;7.93;;;4.97;;
4986;SDS011;12674;51.500;7.552;2023-04-24T06:01:56;7.53;;;5.70;;
4986;SDS011;12674;51.500;7.552;2023-04-24T06:03:59;11.60;;;5.80;;
4986;SDS011;12674;51.500;7.552;2023-04-24T06:06:03;10.33;;;5.03;;
4986;SDS011;12674;51.500;7.552;2023-04-24T06:08:07;8.40;;;4.97;;
4986;SDS011;12674;51.500;7.552;2023-04-24T06:10:12;6.93;;;5.93;;
4986;SDS011;12674;51.500;7.552;2023-04-24T06:12:18;5.73;;;5.07;;
4986;SDS011;12674;51.500;7.552;2023-04-24T06:14:29;9.00;;;6.13;;
4986;SDS011;12674;51.500;7.552;2023-04-24T06:16:54;7.27;;;4.93;;
4986;SDS011;12674;51.500;7.552;2023-04-24T06:19:08;8.67;;;5.97;;
4986;SDS011;12674;51.500;7.552;2023-04-24T06:21:11;8.70;;;5.93;;
4986;SDS011;12674;51.500;7.552;2023-04-24T06:23:14;5.37;;;4.97;;
4986;SDS011;12674;51.500;7.552;2023-04-24T06:25:17;7.40;;;5.53;;
4986;SDS011;12674;51.500;7.552;2023-04-24T06:27:20;9.87;;;5.80;;
4986;SDS011;12674;51.500;7.552;2023-04-24T06:29:23;8.20;;;5.47;;
4986;SDS011;12674;51.500;7.552;2023-04-24T06:31:26;7.80;;;5.67;;
4986;SDS011;12674;51.500;7.552;2023-04-24T06:33:29;7.47;;;5.20;;
4986;SDS011;12674;51.500;7.552;2023-04-24T06:35:34;9.80;;;4.90;;
4986;SDS011;12674;51.500;7.552;2023-04-24T06:37:37;9.23;;;4.97;;
4986;SDS011;12674;51.500;7.552;2023-04-24T06:39:40;5.97;;;4.97;;
4986;SDS011;12674;51.500;7.552;2023-04-24T06:41:43;6.00;;;4.50;;
4986;SDS011;12674;51.500;7.552;2023-04-24T06:43:53;7.43;;;4.37;;
4986;SDS011;12674;51.500;7.552;2023-04-24T06:45:56;5.60;;;4.30;;
4986;SDS011;12674;51.500;7.552;2023-04-24T06:47:59;9.80;;;4.70;;
4986;SDS011;12674;51.500;7.552;2023-04-24T06:50:02;5.23;;;3.70;;
4986;SDS011;12674;51.500;7.552;2023-04-24T06:52:07;5.10;;;3.83;;
4986;SDS011;12674;51.500;7.552;2023-04-24T06:54:10;3.40;;;3.10;;
4986;SDS011;12674;51.500;7.552;2023-04-24T06:56:14;5.03;;;3.17;;
4986;SDS011;12674;51.500;7.552;2023-04-24T06:58:17;4.53;;;3.20;;
4986;SDS011;12674;51.500;7.552;2023-04-24T07:00:20;3.93;;;3.40;;
4986;SDS011;12674;51.500;7.552;2023-04-24T07:02:25;3.23;;;2.93;;
4986;SDS011;12674;51.500;7.552;2023-04-24T07:04:28;3.97;;;3.07;;
4986;SDS011;12674;51.500;7.552;2023-04-24T07:06:31;3.30;;;3.00;;
4986;SDS011;12674;51.500;7.552;2023-04-24T07:08:36;3.83;;;2.97;;
4986;SDS011;12674;51.500;7.552;2023-04-24T07:10:39;2.70;;;2.50;;
4986;SDS011;12674;51.500;7.552;2023-04-24T07:12:42;3.73;;;3.17;;
4986;SDS011;12674;51.500;7.552;2023-04-24T07:14:46;4.60;;;3.03;;
4986;SDS011;12674;51.500;7.552;2023-04-24T07:16:49;6.33;;;3.40;;
4986;SDS011;12674;51.500;7.552;2023-04-24T07:18:52;5.03;;;3.00;;
4986;SDS011;12674;51.500;7.552;2023-04-24T07:20:55;4.30;;;3.27;;
4986;SDS011;12674;51.500;7.552;2023-04-24T07:22:58;3.90;;;3.43;;
4986;SDS011;12674;51.500;7.552;2023-04-24T07:25:02;3.27;;;2.97;;
4986;SDS011;12674;51.500;7.552;2023-04-24T07:27:06;4.43;;;3.30;;
4986;SDS011;12674;51.500;7.552;2023-04-24T07:29:09;4.10;;;3.20;;
4986;SDS011;12674;51.500;7.552;2023-04-24T07:31:12;3.30;;;2.93;;
4986;SDS011;12674;51.500;7.552;2023-04-24T07:33:16;3.30;;;3.10;;
4986;SDS011;12674;51.500;7.552;2023-04-24T07:35:19;2.93;;;2.57;;
4986;SDS011;12674;51.500;7.552;2023-04-24T07:37:22;2.70;;;2.47;;
4986;SDS011;12674;51.500;7.552;2023-04-24T07:39:25;9.03;;;2.50;;
4986;SDS011;12674;51.500;7.552;2023-04-24T07:41:31;6.77;;;2.37;;
4986;SDS011;12674;51.500;7.552;2023-04-24T07:43:34;2.80;;;1.90;;
4986;SDS011;12674;51.500;7.552;2023-04-24T07:45:37;7.00;;;2.10;;
4986;SDS011;12674;51.500;7.552;2023-04-24T07:47:41;1.67;;;1.57;;
4986;SDS011;12674;51.500;7.552;2023-04-24T07:49:45;2.90;;;1.93;;
4986;SDS011;12674;51.500;7.552;2023-04-24T07:51:48;2.10;;;2.00;;
4986;SDS011;12674;51.500;7.552;2023-04-24T07:53:52;2.50;;;2.30;;
4986;SDS011;12674;51.500;7.552;2023-04-24T07:55:56;2.60;;;1.80;;
4986;SDS011;12674;51.500;7.552;2023-04-24T07:58:00;4.90;;;2.50;;
4986;SDS011;12674;51.500;7.552;2023-04-24T08:00:04;3.93;;;2.30;;
4986;SDS011;12674;51.500;7.552;2023-04-24T08:02:13;2.90;;;2.20;;
4986;SDS011;12674;51.500;7.552;2023-04-24T08:04:17;3.67;;;2.00;;
4986;SDS011;12674;51.500;7.552;2023-04-24T08:06:20;6.13;;;2.00;;
4986;SDS011;12674;51.500;7.552;2023-04-24T08:08:23;4.50;;;2.10;;
4986;SDS011;12674;51.500;7.552;2023-04-24T08:10:26;1.67;;;1.57;;
4986;SDS011;12674;51.500;7.552;2023-04-24T08:12:29;1.83;;;1.50;;
4986;SDS011;12674;51.500;7.552;2023-04-24T08:14:33;4.83;;;1.63;;
4986;SDS011;12674;51.500;7.552;2023-04-24T08:16:36;1.30;;;1.30;;
4986;SDS011;12674;51.500;7.552;2023-04-24T08:18:40;1.63;;;1.53;;
4986;SDS011;12674;51.500;7.552;2023-04-24T08:20:43;1.20;;;1.10;;
4986;SDS011;12674;51.500;7.552;2023-04-24T08:22:46;1.43;;;1.33;;
4986;SDS011;12674;51.500;7.552;2023-04-24T08:24:50;1.50;;;1.40;;
4986;SDS011;12674;51.500;7.552;2023-04-24T08:26:53;2.80;;;1.30;;
4986;SDS011;12674;51.500;7.552;2023-04-24T08:28:58;1.37;;;1.27;;
4986;SDS011;12674;51.500;7.552;2023-04-24T08:31:02;2.17;;;1.40;;
4986;SDS011;12674;51.500;7.552;2023-04-24T08:33:05;1.57;;;1.07;;
4986;SDS011;12674;51.500;7.552;2023-04-24T08:35:08;1.20;;;1.10;;
4986;SDS011;12674;51.500;7.552;2023-04-24T08:37:12;2.43;;;1.20;;
4986;SDS011;12674;51.500;7.552;2023-04-24T08:39:15;2.83;;;0.60;;
4986;SDS011;12674;51.500;7.552;2023-04-24T08:41:18;2.13;;;0.80;;
4986;SDS011;12674;51.500;7.552;2023-04-24T08:43:22;0.97;;;0.73;;
4986;SDS011;12674;51.500;7.552;2023-04-24T08:45:25;0.60;;;0.60;;
4986;SDS011;12674;51.500;7.552;2023-04-24T08:47:30;0.50;;;0.50;;
4986;SDS011;12674;51.500;7.552;2023-04-24T08:49:34;0.60;;;0.60;;
4986;SDS011;12674;51.500;7.552;2023-04-24T08:51:38;0.60;;;0.50;;
4986;SDS011;12674;51.500;7.552;2023-04-24T08:53:42;1.53;;;0.60;;
4986;SDS011;12674;51.500;7.552;2023-04-24T08:55:46;0.50;;;0.50;;
4986;SDS011;12674;51.500;7.552;2023-04-24T08:57:50;0.70;;;0.50;;
4986;SDS011;12674;51.500;7.552;2023-04-24T08:59:54;0.77;;;0.57;;
4986;SDS011;12674;51.500;7.552;2023-04-24T09:01:59;0.80;;;0.70;;
4986;SDS011;12674;51.500;7.552;2023-04-24T09:04:04;0.50;;;0.50;;
4986;SDS011;12674;51.500;7.552;2023-04-24T09:06:07;1.07;;;0.60;;
4986;SDS011;12674;51.500;7.552;2023-04-24T09:08:10;0.60;;;0.60;;
4986;SDS011;12674;51.500;7.552;2023-04-24T09:10:15;0.80;;;0.60;;
4986;SDS011;12674;51.500;7.552;2023-04-24T09:12:17;0.60;;;0.50;;
4986;SDS011;12674;51.500;7.552;2023-04-24T09:14:21;5.70;;;0.70;;
4986;SDS011;12674;51.500;7.552;2023-04-24T09:16:25;2.20;;;0.70;;
4986;SDS011;12674;51.500;7.552;2023-04-24T09:18:29;1.27;;;0.70;;
4986;SDS011;12674;51.500;7.552;2023-04-24T09:20:33;0.80;;;0.80;;
4986;SDS011;12674;51.500;7.552;2023-04-24T09:22:37;1.90;;;0.60;;
4986;SDS011;12674;51.500;7.552;2023-04-24T09:24:40;3.27;;;1.00;;
4986;SDS011;12674;51.500;7.552;2023-04-24T09:26:43;2.40;;;0.80;;
4986;SDS011;12674;51.500;7.552;2023-04-24T09:28:47;0.50;;;0.50;;
4986;SDS011;12674;51.500;7.552;2023-04-24T09:31:01;1.03;;;0.70;;
4986;SDS011;12674;51.500;7.552;2023-04-24T09:33:12;1.43;;;0.83;;
4986;SDS011;12674;51.500;7.552;2023-04-24T09:35:17;1.40;;;0.70;;
4986;SDS011;12674;51.500;7.552;2023-04-24T09:37:29;1.33;;;0.90;;
4986;SDS011;12674;51.500;7.552;2023-04-24T09:39:32;0.90;;;0.90;;
4986;SDS011;12674;51.500;7.552;2023-04-24T09:41:43;2.77;;;1.07;;
4986;SDS011;12674;51.500;7.552;2023-04-24T09:43:46;0.70;;;0.70;;
4986;SDS011;12674;51.500;7.552;2023-04-24T09:45:49;2.13;;;1.10;;
4986;SDS011;12674;51.500;7.552;2023-04-24T09:47:58;1.80;;;1.50;;
4986;SDS011;12674;51.500;7.552;2023-04-24T09:50:08;1.73;;;1.20;;
4986;SDS011;12674;51.500;7.552;2023-04-24T09:52:12;2.30;;;1.07;;
4986;SDS011;12674;51.500;7.552;2023-04-24T09:54:19;6.67;;;1.47;;
4986;SDS011;12674;51.500;7.552;2023-04-24T09:56:24;1.43;;;1.17;;
4986;SDS011;12674;51.500;7.552;2023-04-24T09:58:30;3.67;;;1.40;;
4986;SDS011;12674;51.500;7.552;2023-04-24T10:00:33;8.07;;;1.77;;
4986;SDS011;12674;51.500;7.552;2023-04-24T10:02:39;0.97;;;0.97;;
4986;SDS011;12674;51.500;7.552;2023-04-24T10:04:53;1.40;;;1.30;;
4986;SDS011;12674;51.500;7.552;2023-04-24T10:06:57;1.33;;;1.03;;
4986;SDS011;12674;51.500;7.552;2023-04-24T10:09:03;1.30;;;1.10;;
4986;SDS011;12674;51.500;7.552;2023-04-24T10:11:08;2.53;;;1.20;;
4986;SDS011;12674;51.500;7.552;2023-04-24T10:13:13;10.97;;;1.30;;
4986;SDS011;12674;51.500;7.552;2023-04-24T10:15:17;1.20;;;1.10;;
4986;SDS011;12674;51.500;7.552;2023-04-24T10:17:22;2.87;;;1.00;;
4986;SDS011;12674;51.500;7.552;2023-04-24T10:19:27;2.00;;;1.30;;
4986;SDS011;12674;51.500;7.552;2023-04-24T10:21:30;1.20;;;1.10;;
4986;SDS011;12674;51.500;7.552;2023-04-24T10:23:35;1.53;;;1.40;;
4986;SDS011;12674;51.500;7.552;2023-04-24T10:25:38;1.20;;;1.20;;
4986;SDS011;12674;51.500;7.552;2023-04-24T10:27:43;3.10;;;1.43;;
4986;SDS011;12674;51.500;7.552;2023-04-24T10:29:47;1.90;;;1.80;;
4986;SDS011;12674;51.500;7.552;2023-04-24T10:31:52;6.37;;;1.93;;
4986;SDS011;12674;51.500;7.552;2023-04-24T10:33:56;3.67;;;1.90;;
4986;SDS011;12674;51.500;7.552;2023-04-24T10:36:01;2.10;;;2.00;;
4986;SDS011;12674;51.500;7.552;2023-04-24T10:38:06;2.30;;;1.70;;
4986;SDS011;12674;51.500;7.552;2023-04-24T10:40:11;2.00;;;1.50;;
4986;SDS011;12674;51.500;7.552;2023-04-24T10:42:15;2.00;;;1.73;;
4986;SDS011;12674;51.500;7.552;2023-04-24T10:44:20;2.90;;;1.87;;
4986;SDS011;12674;51.500;7.552;2023-04-24T10:46:25;2.47;;;1.70;;
4986;SDS011;12674;51.500;7.552;2023-04-24T10:48:31;3.47;;;1.70;;
4986;SDS011;12674;51.500;7.552;2023-04-24T10:50:44;1.80;;;1.70;;
4986;SDS011;12674;51.500;7.552;2023-04-24T10:52:48;2.40;;;1.87;;
4986;SDS011;12674;51.500;7.552;2023-04-24T10:54:52;3.30;;;1.90;;
4986;SDS011;12674;51.500;7.552;2023-04-24T10:59:35;2.63;;;1.90;;
4986;SDS011;12674;51.500;7.552;2023-04-24T11:01:39;5.53;;;2.10;;
4986;SDS011;12674;51.500;7.552;2023-04-24T11:03:41;2.73;;;2.20;;
4986;SDS011;12674;51.500;7.552;2023-04-24T11:05:57;4.53;;;3.17;;
4986;SDS011;12674;51.500;7.552;2023-04-24T11:08:12;2.90;;;2.20;;
4986;SDS011;12674;51.500;7.552;2023-04-24T11:10:25;2.23;;;2.03;;
4986;SDS011;12674;51.500;7.552;2023-04-24T11:12:28;3.93;;;2.40;;
4986;SDS011;12674;51.500;7.552;2023-04-24T11:14:31;3.90;;;2.63;;
4986;SDS011;12674;51.500;7.552;2023-04-24T11:17:05;5.47;;;2.83;;
4986;SDS011;12674;51.500;7.552;2023-04-24T11:19:09;4.77;;;3.17;;
4986;SDS011;12674;51.500;7.552;2023-04-24T11:21:20;4.03;;;3.03;;
4986;SDS011;12674;51.500;7.552;2023-04-24T11:23:27;3.53;;;2.70;;
4986;SDS011;12674;51.500;7.552;2023-04-24T11:25:30;5.73;;;3.10;;
4986;SDS011;12674;51.500;7.552;2023-04-24T11:27:38;5.13;;;3.53;;
4986;SDS011;12674;51.500;7.552;2023-04-24T11:29:43;6.50;;;4.23;;
4986;SDS011;12674;51.500;7.552;2023-04-24T11:31:51;6.83;;;3.60;;
4986;SDS011;12674;51.500;7.552;2023-04-24T11:33:57;9.17;;;3.87;;
4986;SDS011;12674;51.500;7.552;2023-04-24T11:36:10;8.57;;;4.40;;
4986;SDS011;12674;51.500;7.552;2023-04-24T11:38:14;12.17;;;3.70;;
4986;SDS011;12674;51.500;7.552;2023-04-24T11:40:21;9.70;;;4.20;;
4986;SDS011;12674;51.500;7.552;2023-04-24T11:42:28;9.00;;;4.40;;
4986;SDS011;12674;51.500;7.552;2023-04-24T11:44:31;11.23;;;4.23;;
4986;SDS011;12674;51.500;7.552;2023-04-24T11:46:34;16.80;;;4.80;;
4986;SDS011;12674;51.500;7.552;2023-04-24T11:48:45;13.00;;;4.70;;
4986;SDS011;12674;51.500;7.552;2023-04-24T11:50:49;12.90;;;4.50;;
4986;SDS011;12674;51.500;7.552;2023-04-24T11:52:51;13.80;;;5.13;;
4986;SDS011;12674;51.500;7.552;2023-04-24T11:54:55;11.23;;;5.00;;
4986;SDS011;12674;51.500;7.552;2023-04-24T11:57:03;13.90;;;5.40;;
4986;SDS011;12674;51.500;7.552;2023-04-24T11:59:10;19.13;;;5.33;;
4986;SDS011;12674;51.500;7.552;2023-04-24T12:01:13;9.60;;;4.83;;
4986;SDS011;12674;51.500;7.552;2023-04-24T12:03:16;15.90;;;5.63;;
4986;SDS011;12674;51.500;7.552;2023-04-24T12:05:21;11.23;;;5.53;;
4986;SDS011;12674;51.500;7.552;2023-04-24T12:07:25;16.03;;;6.03;;
4986;SDS011;12674;51.500;7.552;2023-04-24T12:09:29;15.50;;;4.83;;
4986;SDS011;12674;51.500;7.552;2023-04-24T12:11:32;19.53;;;5.70;;
4986;SDS011;12674;51.500;7.552;2023-04-24T12:13:35;16.30;;;5.70;;
4986;SDS011;12674;51.500;7.552;2023-04-24T12:15:39;20.83;;;7.50;;
4986;SDS011;12674;51.500;7.552;2023-04-24T12:17:43;14.73;;;5.43;;
4986;SDS011;12674;51.500;7.552;2023-04-24T12:19:47;18.87;;;6.70;;
4986;SDS011;12674;51.500;7.552;2023-04-24T12:22:00;23.00;;;7.30;;
4986;SDS011;12674;51.500;7.552;2023-04-24T12:24:05;20.53;;;6.10;;
4986;SDS011;12674;51.500;7.552;2023-04-24T12:26:09;18.10;;;4.20;;
4986;SDS011;12674;51.500;7.552;2023-04-24T12:28:12;13.50;;;4.70;;
4986;SDS011;12674;51.500;7.552;2023-04-24T12:30:15;12.63;;;4.67;;
4986;SDS011;12674;51.500;7.552;2023-04-24T12:32:19;10.17;;;4.57;;
4986;SDS011;12674;51.500;7.552;2023-04-24T12:34:22;11.73;;;3.40;;
4986;SDS011;12674;51.500;7.552;2023-04-24T12:36:26;13.03;;;4.30;;
4986;SDS011;12674;51.500;7.552;2023-04-24T12:38:32;14.90;;;4.60;;
4986;SDS011;12674;51.500;7.552;2023-04-24T12:40:42;20.30;;;5.00;;
4986;SDS011;12674;51.500;7.552;2023-04-24T12:42:46;9.10;;;3.70;;
4986;SDS011;12674;51.500;7.552;2023-04-24T12:44:50;12.05;;;3.97;;